createdAt,value
2022-12-04T00:01:30.705Z,15.15
2022-12-04T00:06:34.821Z,14.02
2022-12-04T00:11:37.497Z,13.68
2022-12-04T00:16:40.258Z,13.82
2022-12-04T00:21:45.177Z,13.90
2022-12-04T00:26:47.847Z,13.18
2022-12-04T00:31:50.557Z,14.05
2022-12-04T00:36:54.625Z,10.65
2022-12-04T00:41:57.323Z,14.20
2022-12-04T00:46:59.953Z,14.40
2022-12-04T00:52:04.069Z,13.02
2022-12-04T00:57:06.734Z,13.73
2022-12-04T01:02:09.418Z,13.70
2022-12-04T01:07:13.416Z,15.88
2022-12-04T01:12:20.559Z,14.93
2022-12-04T01:17:23.855Z,15.18
2022-12-04T01:22:27.887Z,13.60
2022-12-04T01:27:30.524Z,16.30
2022-12-04T01:32:33.188Z,13.25
2022-12-04T01:37:37.230Z,16.00
2022-12-04T01:42:39.918Z,15.68
2022-12-04T01:47:42.640Z,13.70
2022-12-04T01:52:46.669Z,15.95
2022-12-04T01:57:49.398Z,14.88
2022-12-04T02:02:52.147Z,14.57
2022-12-04T02:07:58.910Z,13.93
2022-12-04T02:13:04.744Z,15.07
2022-12-04T02:18:11.585Z,14.90
2022-12-04T02:23:48.958Z,13.93
2022-12-04T02:28:54.810Z,14.60
2022-12-04T02:34:01.609Z,16.65
2022-12-04T02:39:06.876Z,14.43
2022-12-04T02:44:14.978Z,15.57
2022-12-04T02:49:21.007Z,15.50
2022-12-04T02:54:26.876Z,15.63
2022-12-04T02:59:34.590Z,14.32
2022-12-04T03:04:37.508Z,14.85
2022-12-04T03:09:43.403Z,15.43
2022-12-04T03:14:51.253Z,15.18
2022-12-04T03:19:56.483Z,14.40
2022-12-04T03:24:59.521Z,15.55
2022-12-04T03:30:06.346Z,14.40
2022-12-04T03:35:13.792Z,16.40
2022-12-04T03:40:20.666Z,13.75
2022-12-04T03:45:27.581Z,13.98
2022-12-04T03:50:34.833Z,13.93
2022-12-04T03:55:41.396Z,16.70
2022-12-04T04:00:47.338Z,15.13
2022-12-04T04:05:52.346Z,13.35
2022-12-04T04:10:56.971Z,15.52
2022-12-04T04:16:18.677Z,16.63
2022-12-04T04:21:57.036Z,13.73
2022-12-04T04:27:00.631Z,15.82
2022-12-04T04:32:10.756Z,12.82
2022-12-04T04:37:18.102Z,13.25
2022-12-04T04:42:23.816Z,13.23
2022-12-04T04:47:31.702Z,14.63
2022-12-04T04:52:35.070Z,14.60
2022-12-04T04:57:38.100Z,16.38
2022-12-04T05:02:42.130Z,13.30
2022-12-04T05:07:44.942Z,13.93
2022-12-04T05:12:47.670Z,14.00
2022-12-04T05:17:51.701Z,15.45
2022-12-04T05:22:54.645Z,15.90
2022-12-04T05:27:58.134Z,12.50
2022-12-04T05:33:02.194Z,12.07
2022-12-04T05:38:04.848Z,15.50
2022-12-04T05:43:07.496Z,14.38
2022-12-04T05:48:11.678Z,14.40
2022-12-04T05:53:14.363Z,14.30
2022-12-04T05:58:16.987Z,14.32
2022-12-04T06:03:21.396Z,12.90
2022-12-04T06:08:24.086Z,12.82
2022-12-04T06:13:26.766Z,12.55
2022-12-04T06:18:30.779Z,12.68
2022-12-04T06:23:33.417Z,14.05
2022-12-04T06:28:36.332Z,13.82
2022-12-04T06:33:40.663Z,12.70
2022-12-04T06:38:44.058Z,13.30
2022-12-04T06:43:47.005Z,11.93
2022-12-04T06:48:51.492Z,12.77
2022-12-04T06:53:54.325Z,12.45
2022-12-04T06:58:58.721Z,12.07
2022-12-04T07:04:04.181Z,12.15
2022-12-04T07:09:09.649Z,10.65
2022-12-04T07:14:13.159Z,10.07
2022-12-04T07:19:17.270Z,10.65
2022-12-04T07:24:19.911Z,9.60
2022-12-04T07:29:22.533Z,11.50
2022-12-04T07:34:26.560Z,11.20
2022-12-04T07:39:29.388Z,12.20
2022-12-04T07:44:32.225Z,10.63
2022-12-04T07:49:36.537Z,9.70
2022-12-04T07:54:39.182Z,10.55
2022-12-04T07:59:41.782Z,10.35
2022-12-04T08:04:45.991Z,10.18
2022-12-04T08:09:48.658Z,9.93
2022-12-04T08:14:51.335Z,10.65
2022-12-04T08:19:55.685Z,12.68
2022-12-04T08:24:58.596Z,10.40
2022-12-04T08:30:01.537Z,12.10
2022-12-04T08:35:06.094Z,10.15
2022-12-04T08:40:09.608Z,9.40
2022-12-04T08:45:12.498Z,9.73
2022-12-04T08:51:53.712Z,10.77
2022-12-04T09:02:27.857Z,9.68
2022-12-04T09:07:30.609Z,8.10
2022-12-04T09:12:33.347Z,10.18
2022-12-04T09:17:37.431Z,9.68
2022-12-04T09:23:02.254Z,8.55
2022-12-04T09:28:02.739Z,9.18
2022-12-04T09:33:06.814Z,10.55
2022-12-04T09:38:09.480Z,11.05
2022-12-04T09:43:21.826Z,9.13
2022-12-04T09:48:28.289Z,14.40
2022-12-04T09:53:39.765Z,9.50
2022-12-04T09:58:46.425Z,10.57
2022-12-04T10:03:51.190Z,10.18
2022-12-04T10:08:59.433Z,12.23
2022-12-04T10:14:10.087Z,11.68
2022-12-04T10:19:19.587Z,11.13
2022-12-04T10:24:29.935Z,10.55
2022-12-04T10:29:34.871Z,10.85
2022-12-04T10:34:44.082Z,8.85
2022-12-04T10:39:53.275Z,10.40
2022-12-04T10:44:56.693Z,15.82
2022-12-04T10:50:05.810Z,19.73
2022-12-04T10:55:09.064Z,16.27
2022-12-04T11:00:26.901Z,16.05
2022-12-04T11:05:33.559Z,16.83
2022-12-04T11:10:38.354Z,16.63
2022-12-04T11:15:44.488Z,17.05
2022-12-04T11:20:53.740Z,18.23
2022-12-04T11:26:03.777Z,14.73
2022-12-04T11:31:10.819Z,20.38
2022-12-04T11:36:20.897Z,20.83
2022-12-04T11:41:28.552Z,17.00
2022-12-04T11:46:34.065Z,13.93
2022-12-04T11:51:46.650Z,16.45
2022-12-04T11:56:52.107Z,22.23
2022-12-04T12:02:01.142Z,19.33
2022-12-04T12:07:12.667Z,18.88
2022-12-04T12:12:20.652Z,20.02
2022-12-04T12:17:29.764Z,15.40
2022-12-04T12:22:46.129Z,18.35
2022-12-04T12:28:01.089Z,16.40
2022-12-04T12:33:11.112Z,19.40
2022-12-04T12:38:18.449Z,18.35
2022-12-04T12:43:25.334Z,16.67
2022-12-04T12:48:32.279Z,19.10
2022-12-04T12:53:40.150Z,16.42
2022-12-04T12:58:45.346Z,18.30
2022-12-04T13:03:53.505Z,17.90
2022-12-04T13:09:05.033Z,21.20
2022-12-04T13:14:07.732Z,16.13
2022-12-04T13:19:14.384Z,16.63
2022-12-04T13:24:47.602Z,16.00
2022-12-04T13:30:05.574Z,15.02
2022-12-04T13:35:15.899Z,14.52
2022-12-04T13:40:32.728Z,13.02
2022-12-04T13:45:35.484Z,13.68
2022-12-04T13:50:39.490Z,16.30
2022-12-04T13:55:43.590Z,12.07
2022-12-04T14:00:46.295Z,12.07
2022-12-04T14:05:49.065Z,13.38
2022-12-04T14:11:01.254Z,13.00
2022-12-04T14:16:05.948Z,12.85
2022-12-04T14:21:08.682Z,12.35
2022-12-04T14:26:37.442Z,13.65
2022-12-04T14:31:47.742Z,11.75
2022-12-04T14:36:52.070Z,13.02
2022-12-04T14:42:07.081Z,13.60
2022-12-04T14:47:19.939Z,12.18
2022-12-04T14:52:26.906Z,12.85
2022-12-04T14:57:42.076Z,12.90
2022-12-04T15:02:46.251Z,13.90
2022-12-04T15:07:50.857Z,14.15
2022-12-04T15:12:55.678Z,10.77
2022-12-04T15:18:00.353Z,14.77
2022-12-04T15:23:03.695Z,11.90
2022-12-04T15:28:11.878Z,13.68
2022-12-04T15:33:21.592Z,12.65
2022-12-04T15:38:24.849Z,9.98
2022-12-04T15:43:31.892Z,14.25
2022-12-04T15:48:34.538Z,12.27
2022-12-04T15:53:38.854Z,13.27
2022-12-04T15:58:53.728Z,11.00
2022-12-04T16:03:57.242Z,10.98
2022-12-04T16:09:01.398Z,11.77
2022-12-04T16:14:17.931Z,12.77
2022-12-04T16:19:30.518Z,10.38
2022-12-04T16:24:33.249Z,12.50
2022-12-04T16:29:37.319Z,11.60
2022-12-04T16:34:40.054Z,11.57
2022-12-04T16:39:43.056Z,11.80
2022-12-04T16:44:47.362Z,13.52
2022-12-04T16:49:51.783Z,12.70
2022-12-04T16:54:54.789Z,12.38
2022-12-04T16:59:59.360Z,12.75
2022-12-04T17:05:02.370Z,11.35
2022-12-04T17:10:06.228Z,10.57
2022-12-04T17:15:11.665Z,13.30
2022-12-04T17:20:16.303Z,12.50
2022-12-04T17:25:19.286Z,14.15
2022-12-04T17:30:23.334Z,12.25
2022-12-04T17:35:26.012Z,12.20
2022-12-04T17:40:28.707Z,12.93
2022-12-04T17:45:32.760Z,11.73
2022-12-04T17:50:35.408Z,11.05
2022-12-04T17:55:38.095Z,11.18
2022-12-04T18:00:42.267Z,12.02
2022-12-04T18:05:44.973Z,10.90
2022-12-04T18:10:47.623Z,13.98
2022-12-04T18:15:51.712Z,12.43
2022-12-04T18:21:01.014Z,13.32
2022-12-04T18:26:04.865Z,11.43
2022-12-04T18:31:09.790Z,12.02
2022-12-04T18:36:15.567Z,13.02
2022-12-04T18:41:18.262Z,13.00
2022-12-04T18:46:22.761Z,12.00
2022-12-04T18:51:27.594Z,12.80
2022-12-04T18:56:31.045Z,11.63
2022-12-04T19:01:35.558Z,13.25
2022-12-04T19:06:40.587Z,13.00
2022-12-04T19:11:44.199Z,11.77
2022-12-04T19:16:48.758Z,11.57
2022-12-04T19:21:51.528Z,16.20
2022-12-04T19:26:54.857Z,11.40
2022-12-04T19:31:59.653Z,13.15
2022-12-04T19:37:02.791Z,13.40
2022-12-04T19:42:05.609Z,13.40
2022-12-04T19:47:09.678Z,13.13
2022-12-04T19:52:12.369Z,12.45
2022-12-04T19:57:15.583Z,13.30
2022-12-04T20:02:19.939Z,14.60
2022-12-04T20:07:22.829Z,12.68
2022-12-04T20:12:25.547Z,13.25
2022-12-04T20:17:31.310Z,12.35
2022-12-04T20:22:34.887Z,11.98
2022-12-04T20:27:37.582Z,13.93
2022-12-04T20:32:41.601Z,11.50
2022-12-04T20:37:44.286Z,11.88
2022-12-04T20:42:47.033Z,14.68
2022-12-04T20:47:51.097Z,11.95
2022-12-04T20:52:53.763Z,11.65
2022-12-04T20:57:57.284Z,16.42
2022-12-04T21:03:01.353Z,12.93
2022-12-04T21:08:04.221Z,14.50
2022-12-04T21:13:24.793Z,12.57
2022-12-04T21:18:28.890Z,13.00
2022-12-04T21:23:31.834Z,13.85
2022-12-04T21:28:34.610Z,14.95
2022-12-04T21:33:38.590Z,12.45
2022-12-04T21:38:41.432Z,11.77
2022-12-04T21:43:44.078Z,13.13
2022-12-04T21:48:48.234Z,15.55
2022-12-04T21:53:50.979Z,15.00
2022-12-04T21:58:54.555Z,12.38
2022-12-04T22:03:58.552Z,16.23
2022-12-04T22:09:01.666Z,12.65
2022-12-04T22:14:04.510Z,12.40
2022-12-04T22:19:08.602Z,18.63
2022-12-04T22:24:11.587Z,13.40
2022-12-04T22:29:48.686Z,12.90
2022-12-04T22:34:38.340Z,14.00
2022-12-04T22:39:41.034Z,13.00
2022-12-04T22:44:43.682Z,12.45
2022-12-04T22:49:47.806Z,15.10
2022-12-04T22:54:51.177Z,13.68
2022-12-04T22:59:53.938Z,13.55
2022-12-04T23:04:57.991Z,14.15
2022-12-04T23:10:00.787Z,14.15
2022-12-04T23:15:03.472Z,16.83
2022-12-04T23:20:08.877Z,14.63
2022-12-04T23:25:11.519Z,12.88
2022-12-04T23:30:14.436Z,14.93
2022-12-04T23:35:18.456Z,14.75
2022-12-04T23:40:21.127Z,15.07
2022-12-04T23:45:23.793Z,14.23
2022-12-04T23:50:27.842Z,15.27
2022-12-04T23:55:34.339Z,15.15
